Shalalth, Canada
Current Conditions -  °F | °C
As of 4:00 PM on Friday 19 Dec 2014 (Local Time) from CYIN Reporting Station
Broken Clouds Broken Clouds  
Wind Chill: -4°   Ceiling: 19000
Heat Index:   Visibility: 9mi
Dew Point: -2°   Wind: 9mph
Humidity: 87%   Direction: 130°SE
Pressure: 29.69"   Gusts: 17mph
Location:  50.73°N, 122.23°W
Report Text: CYIN 200000Z AUTO 13008G15KT 9SM FEW170 BKN190 00/M02 A2969 RMK SLP084
Loading
Personal Weather Stations






























Interactive Weather Map New forecast layout! Learn more

10-Day Weather Forecast

Advertisements
Track Severe Weather on mobile